Baltimore, Maryland
Traffic Map
Current Weather Conditions
Baltimore, Maryland
Scattered Clouds
Scattered Clouds
27°
Feels Like: 27°
Wind Chill: 27° Ceiling: Unl
Heat Index: 27° Visibility: 10mi
Dew Point: 11° Wind: 8mph
Humidity: 36% Direction: 330° (NNW)
Pressure: 30.02in Gusts: 0mph
Raw Report DataKBWI 251754Z 33007KT 290V350 10SM FEW040 SCT250 27/11 A3002 RMK AO2 SLP164 T02670106 10272 20183 58015
Traffic Incident Summary
Active as of:
Severity:
Category:
InformationThere was an issue retrieving the traffic information for this location. Please try a different location or try again shortly.
Advertisements
Track Severe Weather on mobile